Time;durP1;ratioP1;P1;durP2;ratioP2;P2;SDS_P1;SDS_P2;PMS_P1;PMS_P2;Temp;Humidity;BMP_temperature;BMP_pressure;BME280_temperature;BME280_humidity;BME280_pressure;Samples;Min_cycle;Max_cycle;Signal;HPM_P1;HPM_P2
2022/07/20 00:00:37;;;;;;;5.95;5.20;;;;;;;;;;7390958;19;20136;-70
2022/07/20 00:03:12;;;;;;;9.77;6.57;;;;;;;;;;7392231;19;20141;-70
2022/07/20 00:05:39;;;;;;;5.50;5.00;;;;;;;;;;7391232;19;20120;-70
2022/07/20 00:08:05;;;;;;;6.03;5.43;;;;;;;;;;7392952;19;20129;-70
2022/07/20 00:13:15;;;;;;;6.70;5.38;;;;;;;;;;7381649;19;20132;-70
2022/07/20 00:15:41;;;;;;;5.90;5.40;;;;;;;;;;7375623;19;20129;-70
2022/07/20 00:18:07;;;;;;;6.20;5.60;;;;;;;;;;7377836;19;20137;-70
2022/07/20 00:20:32;;;;;;;8.82;4.90;;;;;;;;;;7381808;19;20136;-70
2022/07/20 00:22:58;;;;;;;5.70;5.20;;;;;;;;;;7379265;19;20154;-70
2022/07/20 00:25:24;;;;;;;7.03;5.85;;;;;;;;;;7384834;19;20113;-71
2022/07/20 00:27:49;;;;;;;5.70;5.03;;;;;;;;;;7377846;19;20129;-70
2022/07/20 00:30:14;;;;;;;5.90;5.30;;;;;;;;;;7378743;19;20132;-70
2022/07/20 00:32:40;;;;;;;6.68;5.53;;;;;;;;;;7368077;19;20269;-70
2022/07/20 00:35:10;;;;;;;7.65;5.88;;;;;;;;;;7379364;19;20130;-70
2022/07/20 00:37:36;;;;;;;6.18;5.22;;;;;;;;;;7381571;19;20121;-70
2022/07/20 00:40:03;;;;;;;11.88;5.82;;;;;;;;;;7378665;19;20148;-70
2022/07/20 00:42:28;;;;;;;8.18;5.30;;;;;;;;;;7381486;19;21319;-70
2022/07/20 00:44:53;;;;;;;6.60;6.00;;;;;;;;;;7384202;19;20121;-71
2022/07/20 00:47:19;;;;;;;8.73;6.40;;;;;;;;;;7381359;19;20133;-70
2022/07/20 00:49:44;;;;;;;7.15;5.85;;;;;;;;;;7381973;19;20488;-70
2022/07/20 00:52:09;;;;;;;6.95;5.90;;;;;;;;;;7374265;19;20149;-70
2022/07/20 00:54:35;;;;;;;7.78;6.40;;;;;;;;;;7383157;19;20505;-70
2022/07/20 00:57:01;;;;;;;6.72;6.03;;;;;;;;;;7378953;19;20152;-70
2022/07/20 00:59:27;;;;;;;6.60;5.93;;;;;;;;;;7376953;19;20137;-70
2022/07/20 01:01:52;;;;;;;6.30;5.35;;;;;;;;;;7378329;19;20157;-70
2022/07/20 01:04:18;;;;;;;6.43;5.82;;;;;;;;;;7379256;19;20151;-70
2022/07/20 01:06:43;;;;;;;6.85;5.60;;;;;;;;;;7379994;19;20140;-70
2022/07/20 01:09:09;;;;;;;6.10;5.50;;;;;;;;;;7374748;19;20121;-71
2022/07/20 01:11:35;;;;;;;6.47;5.88;;;;;;;;;;7367272;19;20174;-71
2022/07/20 01:14:05;;;;;;;8.20;5.60;;;;;;;;;;7372050;19;20121;-70
2022/07/20 01:16:30;;;;;;;6.32;5.60;;;;;;;;;;7377739;19;20121;-70
2022/07/20 01:18:56;;;;;;;7.63;5.78;;;;;;;;;;7380592;19;20204;-70
2022/07/20 01:21:21;;;;;;;8.00;5.85;;;;;;;;;;7370011;19;20172;-70
2022/07/20 01:23:46;;;;;;;6.47;5.65;;;;;;;;;;7376665;19;20144;-70
2022/07/20 01:26:11;;;;;;;5.80;5.30;;;;;;;;;;7378214;19;20447;-70
2022/07/20 01:28:37;;;;;;;6.78;5.38;;;;;;;;;;7378044;19;20121;-70
2022/07/20 01:31:02;;;;;;;6.05;5.35;;;;;;;;;;7377446;19;20599;-70
2022/07/20 01:33:27;;;;;;;5.55;5.13;;;;;;;;;;7378772;19;20827;-70
2022/07/20 01:35:53;;;;;;;7.10;5.75;;;;;;;;;;7379106;19;20591;-70
2022/07/20 01:38:18;;;;;;;6.65;5.95;;;;;;;;;;7375690;19;20125;-70
2022/07/20 01:40:43;;;;;;;6.00;5.20;;;;;;;;;;7373965;19;20149;-71
2022/07/20 01:43:09;;;;;;;8.02;5.47;;;;;;;;;;7375707;19;20117;-70
2022/07/20 01:45:34;;;;;;;6.22;5.63;;;;;;;;;;7375947;19;20117;-70
2022/07/20 01:48:00;;;;;;;7.72;5.75;;;;;;;;;;7379347;19;20697;-70
2022/07/20 01:50:25;;;;;;;5.50;4.97;;;;;;;;;;7378120;19;20109;-71
2022/07/20 01:52:50;;;;;;;5.97;5.40;;;;;;;;;;7376932;19;20617;-71
2022/07/20 01:55:15;;;;;;;7.55;5.43;;;;;;;;;;7383259;19;20612;-71
2022/07/20 01:57:41;;;;;;;7.78;5.82;;;;;;;;;;7380610;19;20117;-71
2022/07/20 02:00:09;;;;;;;6.93;5.45;;;;;;;;;;7381946;19;20176;-71
2022/07/20 02:02:34;;;;;;;8.55;5.35;;;;;;;;;;7374381;19;20173;-70
2022/07/20 02:04:59;;;;;;;7.30;5.18;;;;;;;;;;7373766;19;20141;-71
2022/07/20 02:07:25;;;;;;;7.15;5.50;;;;;;;;;;7378268;19;20136;-71
2022/07/20 02:09:50;;;;;;;6.28;5.70;;;;;;;;;;7377228;19;20140;-70
2022/07/20 02:12:15;;;;;;;7.15;5.50;;;;;;;;;;7375740;19;20148;-71
2022/07/20 02:14:40;;;;;;;6.10;5.47;;;;;;;;;;7377305;19;20120;-70
2022/07/20 02:17:06;;;;;;;7.60;5.85;;;;;;;;;;7374876;19;20113;-70
2022/07/20 02:19:31;;;;;;;8.27;5.68;;;;;;;;;;7378263;19;20156;-71
2022/07/20 02:21:56;;;;;;;6.35;5.78;;;;;;;;;;7379720;19;20137;-70
2022/07/20 02:24:22;;;;;;;6.38;4.90;;;;;;;;;;7383116;19;20598;-70
2022/07/20 02:26:47;;;;;;;8.35;5.55;;;;;;;;;;7382943;19;20124;-70
2022/07/20 02:29:12;;;;;;;8.30;5.50;;;;;;;;;;7389561;19;20136;-70
2022/07/20 02:31:38;;;;;;;6.00;5.28;;;;;;;;;;7371336;19;20148;-71
2022/07/20 02:34:03;;;;;;;7.25;5.43;;;;;;;;;;7386024;19;20514;-71
2022/07/20 02:36:29;;;;;;;7.40;6.03;;;;;;;;;;7386428;19;20117;-70
2022/07/20 02:38:54;;;;;;;11.40;5.95;;;;;;;;;;7387971;19;20125;-70
2022/07/20 02:41:19;;;;;;;5.43;4.93;;;;;;;;;;7379475;19;20144;-71
2022/07/20 02:43:44;;;;;;;6.50;5.70;;;;;;;;;;7389830;19;20133;-70
2022/07/20 02:46:10;;;;;;;7.18;5.32;;;;;;;;;;7383921;19;20117;-71
2022/07/20 02:48:35;;;;;;;7.50;5.47;;;;;;;;;;7391257;19;20141;-70
2022/07/20 02:51:01;;;;;;;6.50;5.90;;;;;;;;;;7381401;19;20594;-71
2022/07/20 02:53:26;;;;;;;6.15;5.55;;;;;;;;;;7384109;19;20160;-70
2022/07/20 02:55:51;;;;;;;7.38;5.40;;;;;;;;;;7383426;19;20127;-70
2022/07/20 02:58:17;;;;;;;10.38;5.82;;;;;;;;;;7388227;19;20121;-71
2022/07/20 03:00:42;;;;;;;8.52;6.10;;;;;;;;;;7385991;19;20613;-70
2022/07/20 03:03:08;;;;;;;6.63;5.70;;;;;;;;;;7381761;19;20120;-70
2022/07/20 03:05:34;;;;;;;10.90;6.15;;;;;;;;;;7390679;19;20109;-70
2022/07/20 03:07:59;;;;;;;7.63;5.78;;;;;;;;;;7378313;19;20125;-71
2022/07/20 03:10:25;;;;;;;8.27;6.60;;;;;;;;;;7384952;19;20591;-71
2022/07/20 03:12:50;;;;;;;6.78;5.70;;;;;;;;;;7379485;19;20642;-70
2022/07/20 03:15:16;;;;;;;7.00;5.53;;;;;;;;;;7377161;19;20121;-70
2022/07/20 03:17:43;;;;;;;8.57;5.55;;;;;;;;;;7379481;19;20518;-70
2022/07/20 03:20:11;;;;;;;6.85;6.25;;;;;;;;;;7376486;19;20479;-70
2022/07/20 03:22:36;;;;;;;6.93;6.15;;;;;;;;;;7376975;19;20152;-70
2022/07/20 03:25:01;;;;;;;7.65;5.90;;;;;;;;;;7384053;19;20479;-71
2022/07/20 03:27:27;;;;;;;8.10;5.78;;;;;;;;;;7380058;19;20410;-70
2022/07/20 03:29:52;;;;;;;6.88;6.18;;;;;;;;;;7377730;19;20129;-70
2022/07/20 03:32:17;;;;;;;6.10;5.60;;;;;;;;;;7383231;19;20594;-71
2022/07/20 03:34:42;;;;;;;6.22;5.63;;;;;;;;;;7382568;19;20201;-70
2022/07/20 03:37:08;;;;;;;8.30;6.43;;;;;;;;;;7375843;19;20591;-71
2022/07/20 03:39:33;;;;;;;7.00;5.82;;;;;;;;;;7393028;19;20133;-70
2022/07/20 03:41:58;;;;;;;7.53;5.85;;;;;;;;;;7388391;19;20176;-70
2022/07/20 03:44:24;;;;;;;6.75;5.78;;;;;;;;;;7391607;19;20561;-70
2022/07/20 03:46:49;;;;;;;6.13;5.53;;;;;;;;;;7394245;19;20121;-70
2022/07/20 03:49:14;;;;;;;6.60;5.90;;;;;;;;;;7394429;19;20145;-70
2022/07/20 03:51:39;;;;;;;6.43;5.75;;;;;;;;;;7383203;19;20624;-71
2022/07/20 03:54:07;;;;;;;8.35;5.88;;;;;;;;;;7392969;19;20121;-70
2022/07/20 03:56:32;;;;;;;8.43;5.97;;;;;;;;;;7392113;19;20470;-70
2022/07/20 03:58:57;;;;;;;6.93;5.70;;;;;;;;;;7393096;19;20113;-70
2022/07/20 04:01:23;;;;;;;9.02;5.93;;;;;;;;;;7389738;19;20158;-70
2022/07/20 04:03:48;;;;;;;6.90;6.22;;;;;;;;;;7394542;19;20588;-70
2022/07/20 04:06:13;;;;;;;7.10;5.43;;;;;;;;;;7393401;19;20576;-70
2022/07/20 04:08:38;;;;;;;6.65;6.05;;;;;;;;;;7393134;19;20121;-70
2022/07/20 04:11:04;;;;;;;8.05;6.32;;;;;;;;;;7393089;19;20149;-70
2022/07/20 04:13:29;;;;;;;18.25;6.82;;;;;;;;;;7393549;19;20128;-70
2022/07/20 04:15:54;;;;;;;8.35;6.30;;;;;;;;;;7394145;19;20125;-70
2022/07/20 04:18:20;;;;;;;6.93;5.95;;;;;;;;;;7388415;19;20144;-70
2022/07/20 04:20:45;;;;;;;7.95;6.03;;;;;;;;;;7375172;19;20128;-70
2022/07/20 04:23:11;;;;;;;6.35;5.75;;;;;;;;;;7380563;19;20105;-70
2022/07/20 04:25:36;;;;;;;10.02;5.80;;;;;;;;;;7384609;19;20132;-70
2022/07/20 04:28:02;;;;;;;7.50;6.10;;;;;;;;;;7377202;19;20615;-70
2022/07/20 04:30:28;;;;;;;7.55;6.00;;;;;;;;;;7379070;19;20125;-70
2022/07/20 04:32:53;;;;;;;7.55;6.22;;;;;;;;;;7376145;19;20160;-70
2022/07/20 04:35:20;;;;;;;6.90;6.18;;;;;;;;;;7372308;19;20510;-70
2022/07/20 04:37:45;;;;;;;7.15;6.22;;;;;;;;;;7374905;19;22763;-70
2022/07/20 04:40:11;;;;;;;9.68;6.65;;;;;;;;;;7380399;19;20117;-70
2022/07/20 04:42:36;;;;;;;9.35;6.07;;;;;;;;;;7382153;19;20172;-70
2022/07/20 04:45:02;;;;;;;6.32;5.40;;;;;;;;;;7384966;19;20137;-70
2022/07/20 04:47:27;;;;;;;7.55;6.03;;;;;;;;;;7390078;19;20494;-70
2022/07/20 04:49:52;;;;;;;7.03;6.20;;;;;;;;;;7386617;19;20517;-70
2022/07/20 04:52:17;;;;;;;7.70;5.90;;;;;;;;;;7381465;19;20156;-70
2022/07/20 04:54:43;;;;;;;6.38;5.47;;;;;;;;;;7383827;19;20484;-70
2022/07/20 04:57:08;;;;;;;7.03;6.07;;;;;;;;;;7379577;19;20618;-70
2022/07/20 04:59:34;;;;;;;10.05;5.95;;;;;;;;;;7381305;19;20121;-70
2022/07/20 05:01:59;;;;;;;9.30;6.40;;;;;;;;;;7376239;19;20153;-70
2022/07/20 05:04:25;;;;;;;9.73;6.90;;;;;;;;;;7385767;19;20125;-70
2022/07/20 05:06:50;;;;;;;9.90;6.57;;;;;;;;;;7383672;19;20125;-70
2022/07/20 05:09:16;;;;;;;8.18;6.70;;;;;;;;;;7384038;19;20117;-71
2022/07/20 05:11:41;;;;;;;8.65;6.50;;;;;;;;;;7391186;19;20549;-70
2022/07/20 05:14:08;;;;;;;10.10;6.88;;;;;;;;;;7393276;19;20192;-70
2022/07/20 05:16:34;;;;;;;8.15;6.38;;;;;;;;;;7393658;19;20141;-70
2022/07/20 05:18:59;;;;;;;9.68;7.13;;;;;;;;;;7393304;19;20133;-70
2022/07/20 05:21:25;;;;;;;9.88;6.50;;;;;;;;;;7391128;19;20153;-70
2022/07/20 05:23:50;;;;;;;9.35;6.30;;;;;;;;;;7391429;19;20117;-70
2022/07/20 05:26:16;;;;;;;7.72;6.70;;;;;;;;;;7391311;19;20144;-71
2022/07/20 05:28:41;;;;;;;7.28;5.93;;;;;;;;;;7392891;19;20133;-71
2022/07/20 05:31:08;;;;;;;9.85;6.15;;;;;;;;;;7389685;19;20507;-71
2022/07/20 05:33:34;;;;;;;9.02;6.47;;;;;;;;;;7391297;19;20117;-70
2022/07/20 05:36:02;;;;;;;8.10;6.65;;;;;;;;;;7390300;19;20129;-71
2022/07/20 05:38:28;;;;;;;7.97;6.22;;;;;;;;;;7392137;19;20140;-71
2022/07/20 05:40:53;;;;;;;8.55;6.70;;;;;;;;;;7392571;19;20189;-70
2022/07/20 05:43:18;;;;;;;7.97;6.32;;;;;;;;;;7392090;19;20129;-70
2022/07/20 05:45:44;;;;;;;9.20;6.75;;;;;;;;;;7391218;19;20137;-70
2022/07/20 05:48:11;;;;;;;9.43;6.82;;;;;;;;;;7390748;19;20148;-70
2022/07/20 05:50:37;;;;;;;11.57;6.40;;;;;;;;;;7389914;19;20105;-70
2022/07/20 05:53:02;;;;;;;8.52;6.75;;;;;;;;;;7389885;19;20129;-70
2022/07/20 05:55:27;;;;;;;7.35;6.25;;;;;;;;;;7384812;19;20145;-70
2022/07/20 05:57:53;;;;;;;8.77;6.70;;;;;;;;;;7386767;19;20151;-70
2022/07/20 06:00:18;;;;;;;9.07;6.90;;;;;;;;;;7388637;19;20143;-70
2022/07/20 06:02:44;;;;;;;11.20;6.72;;;;;;;;;;7386993;19;20160;-70
2022/07/20 06:05:10;;;;;;;12.65;6.97;;;;;;;;;;7388406;19;20119;-70
2022/07/20 06:07:35;;;;;;;8.07;7.00;;;;;;;;;;7387608;19;20125;-70
2022/07/20 06:10:01;;;;;;;11.27;6.80;;;;;;;;;;7389047;19;20206;-70
2022/07/20 06:12:26;;;;;;;11.13;7.07;;;;;;;;;;7385796;19;20586;-70
2022/07/20 06:14:51;;;;;;;8.02;7.22;;;;;;;;;;7388416;19;20583;-70
2022/07/20 06:17:17;;;;;;;9.50;6.70;;;;;;;;;;7388438;19;20544;-70
2022/07/20 06:19:42;;;;;;;9.07;6.70;;;;;;;;;;7388861;19;20120;-70
2022/07/20 06:22:08;;;;;;;9.05;6.80;;;;;;;;;;7387006;19;20215;-70
2022/07/20 06:24:33;;;;;;;8.00;6.70;;;;;;;;;;7389485;19;20714;-70
2022/07/20 06:26:58;;;;;;;10.50;7.03;;;;;;;;;;7389319;19;20602;-70
2022/07/20 06:29:24;;;;;;;8.88;7.20;;;;;;;;;;7389646;19;20112;-70
2022/07/20 06:31:50;;;;;;;8.75;7.90;;;;;;;;;;7386853;19;20153;-70
2022/07/20 06:34:15;;;;;;;11.05;7.45;;;;;;;;;;7382524;19;20120;-70
2022/07/20 06:36:44;;;;;;;11.55;7.18;;;;;;;;;;7387950;19;20125;-70
2022/07/20 06:39:09;;;;;;;8.43;6.88;;;;;;;;;;7389560;19;20128;-70
2022/07/20 06:41:34;;;;;;;10.93;7.22;;;;;;;;;;7387278;19;20164;-70
2022/07/20 06:43:59;;;;;;;7.75;6.90;;;;;;;;;;7388861;19;20140;-70
2022/07/20 06:46:25;;;;;;;11.77;7.50;;;;;;;;;;7387804;19;20113;-70
2022/07/20 06:48:50;;;;;;;14.30;7.20;;;;;;;;;;7388629;19;20195;-70
2022/07/20 06:51:15;;;;;;;10.82;6.80;;;;;;;;;;7386787;19;20136;-70
2022/07/20 06:53:41;;;;;;;9.18;7.45;;;;;;;;;;7390030;19;20133;-70
2022/07/20 06:56:06;;;;;;;9.38;6.93;;;;;;;;;;7382714;19;20617;-70
2022/07/20 06:58:31;;;;;;;7.70;6.57;;;;;;;;;;7388500;19;20143;-70
2022/07/20 07:00:57;;;;;;;10.30;6.97;;;;;;;;;;7385480;19;20144;-70
2022/07/20 07:03:22;;;;;;;11.95;7.70;;;;;;;;;;7381830;19;20121;-70
2022/07/20 07:05:47;;;;;;;8.38;6.93;;;;;;;;;;7387161;19;20475;-70
2022/07/20 07:08:12;;;;;;;8.38;7.15;;;;;;;;;;7388033;19;20149;-69
2022/07/20 07:10:38;;;;;;;13.65;7.25;;;;;;;;;;7382117;19;20133;-70
2022/07/20 07:13:03;;;;;;;9.05;7.75;;;;;;;;;;7383800;19;20105;-70
2022/07/20 07:15:28;;;;;;;10.75;6.72;;;;;;;;;;7387951;19;20129;-70
2022/07/20 07:17:54;;;;;;;8.15;6.75;;;;;;;;;;7387728;19;20121;-70
2022/07/20 07:20:19;;;;;;;13.13;7.93;;;;;;;;;;7393482;19;20155;-70
2022/07/20 07:22:44;;;;;;;9.30;7.78;;;;;;;;;;7389405;19;20526;-70
2022/07/20 07:25:10;;;;;;;7.75;6.88;;;;;;;;;;7394475;19;20129;-70
2022/07/20 07:27:35;;;;;;;9.95;7.05;;;;;;;;;;7392260;19;20137;-70
2022/07/20 07:30:00;;;;;;;13.30;7.55;;;;;;;;;;7392587;19;20133;-71
2022/07/20 07:32:26;;;;;;;27.27;9.55;;;;;;;;;;7390111;19;20165;-70
2022/07/20 07:34:51;;;;;;;9.88;7.38;;;;;;;;;;7392113;19;20121;-70
2022/07/20 07:37:16;;;;;;;10.82;8.20;;;;;;;;;;7394143;19;20121;-70
2022/07/20 07:39:41;;;;;;;9.98;8.15;;;;;;;;;;7392406;19;20864;-70
2022/07/20 07:42:08;;;;;;;9.13;8.15;;;;;;;;;;7391275;19;20144;-70
2022/07/20 07:44:33;;;;;;;12.75;8.75;;;;;;;;;;7391829;19;20159;-70
2022/07/20 07:46:58;;;;;;;19.75;17.05;;;;;;;;;;7391226;19;20113;-70
2022/07/20 07:49:24;;;;;;;11.35;10.20;;;;;;;;;;7393821;19;20131;-70
2022/07/20 07:51:49;;;;;;;16.15;14.05;;;;;;;;;;7392415;19;20501;-70
2022/07/20 07:54:14;;;;;;;17.55;11.82;;;;;;;;;;7390509;19;20591;-70
2022/07/20 07:56:41;;;;;;;9.70;8.68;;;;;;;;;;7390071;19;20138;-70
2022/07/20 07:59:07;;;;;;;9.35;8.55;;;;;;;;;;7391498;19;20201;-70
2022/07/20 08:01:34;;;;;;;10.50;8.50;;;;;;;;;;7390307;19;20145;-70
2022/07/20 08:03:59;;;;;;;8.90;8.15;;;;;;;;;;7393638;19;20128;-70
2022/07/20 08:06:24;;;;;;;12.18;8.98;;;;;;;;;;7392994;19;20114;-70
2022/07/20 08:08:50;;;;;;;11.63;8.75;;;;;;;;;;7392343;19;20445;-70
2022/07/20 08:11:15;;;;;;;9.52;8.57;;;;;;;;;;7390716;19;20647;-70
2022/07/20 08:13:41;;;;;;;8.73;7.93;;;;;;;;;;7390535;19;20121;-70
2022/07/20 08:16:06;;;;;;;10.48;8.55;;;;;;;;;;7391408;19;20639;-70
2022/07/20 08:18:31;;;;;;;10.68;8.40;;;;;;;;;;7391932;19;20588;-70
2022/07/20 08:20:57;;;;;;;9.30;8.45;;;;;;;;;;7391951;19;20192;-70
2022/07/20 08:23:22;;;;;;;9.93;8.98;;;;;;;;;;7392779;19;20201;-70
2022/07/20 08:25:47;;;;;;;8.63;7.82;;;;;;;;;;7393307;19;20499;-70
2022/07/20 08:28:15;;;;;;;9.10;8.30;;;;;;;;;;7392939;19;20591;-70
2022/07/20 08:30:42;;;;;;;9.65;8.45;;;;;;;;;;7391595;19;20128;-70
2022/07/20 08:33:08;;;;;;;9.77;8.60;;;;;;;;;;7393518;19;20140;-70
2022/07/20 08:35:34;;;;;;;9.45;8.43;;;;;;;;;;7384407;19;20591;-70
2022/07/20 08:37:59;;;;;;;9.93;8.55;;;;;;;;;;7390170;19;20526;-70
2022/07/20 08:40:26;;;;;;;10.68;8.10;;;;;;;;;;7390802;19;20109;-70
2022/07/20 08:42:51;;;;;;;8.68;7.72;;;;;;;;;;7387411;19;20149;-70
2022/07/20 08:45:17;;;;;;;9.25;8.50;;;;;;;;;;7390160;19;20173;-70
2022/07/20 08:47:42;;;;;;;8.65;7.85;;;;;;;;;;7389922;19;20129;-70
2022/07/20 08:50:08;;;;;;;8.35;7.75;;;;;;;;;;7388829;19;20112;-70
2022/07/20 08:52:33;;;;;;;9.10;8.20;;;;;;;;;;7388735;19;20942;-70
2022/07/20 08:54:59;;;;;;;9.90;8.38;;;;;;;;;;7390045;19;20128;-70
2022/07/20 08:57:25;;;;;;;9.07;8.23;;;;;;;;;;7393280;19;20213;-70
2022/07/20 08:59:50;;;;;;;9.10;8.35;;;;;;;;;;7393283;19;20116;-70
2022/07/20 09:02:16;;;;;;;8.82;7.97;;;;;;;;;;7390981;19;20506;-70
2022/07/20 09:04:53;;;;;;;8.38;7.55;;;;;;;;;;7393079;19;20105;-70
2022/07/20 09:07:37;;;;;;;9.32;8.50;;;;;;;;;;7393498;19;20124;-70
2022/07/20 09:10:04;;;;;;;9.27;8.48;;;;;;;;;;7393559;19;20109;-70
2022/07/20 09:12:29;;;;;;;8.95;8.15;;;;;;;;;;7389589;19;20255;-70
2022/07/20 09:14:54;;;;;;;8.95;8.25;;;;;;;;;;7391598;19;20101;-71
2022/07/20 09:17:21;;;;;;;9.07;8.27;;;;;;;;;;7391324;19;20557;-70
2022/07/20 09:19:58;;;;;;;9.55;7.88;;;;;;;;;;7391339;19;20120;-70
2022/07/20 09:22:37;;;;;;;8.80;8.00;;;;;;;;;;7390193;19;20156;-71
2022/07/20 09:25:12;;;;;;;9.35;8.43;;;;;;;;;;7393258;19;20116;-70
2022/07/20 09:27:37;;;;;;;9.63;8.82;;;;;;;;;;7392937;19;20116;-70
2022/07/20 09:30:11;;;;;;;9.40;8.60;;;;;;;;;;7390482;19;20124;-71
2022/07/20 09:32:52;;;;;;;9.02;8.32;;;;;;;;;;7390178;19;20164;-71
2022/07/20 09:35:19;;;;;;;8.25;7.47;;;;;;;;;;7392107;19;20121;-70
2022/07/20 09:37:44;;;;;;;8.43;7.65;;;;;;;;;;7389738;19;20125;-71
2022/07/20 09:40:10;;;;;;;8.95;8.15;;;;;;;;;;7391255;19;20181;-71
2022/07/20 09:42:40;;;;;;;9.15;8.35;;;;;;;;;;7389451;19;20635;-71
2022/07/20 09:45:37;;;;;;;9.93;8.85;;;;;;;;;;7390561;19;20156;-71
2022/07/20 09:48:10;;;;;;;9.05;8.35;;;;;;;;;;7389267;19;20197;-70
2022/07/20 09:50:41;;;;;;;8.38;7.65;;;;;;;;;;7390508;19;20116;-71
2022/07/20 09:53:08;;;;;;;8.13;7.43;;;;;;;;;;7390117;19;20121;-71
2022/07/20 09:55:34;;;;;;;8.52;7.80;;;;;;;;;;7390099;19;20520;-70
2022/07/20 09:58:00;;;;;;;8.55;7.80;;;;;;;;;;7392079;19;20125;-71
2022/07/20 10:00:27;;;;;;;9.80;7.88;;;;;;;;;;7390292;19;20124;-70
2022/07/20 10:02:53;;;;;;;9.50;8.60;;;;;;;;;;7388257;19;20149;-70
2022/07/20 10:05:20;;;;;;;9.27;8.38;;;;;;;;;;7392172;19;20137;-71
2022/07/20 10:07:46;;;;;;;12.13;8.82;;;;;;;;;;7389763;19;20144;-71
2022/07/20 10:10:12;;;;;;;8.93;8.23;;;;;;;;;;7389888;19;20121;-71
2022/07/20 10:12:38;;;;;;;9.77;8.82;;;;;;;;;;7388588;19;20184;-71
2022/07/20 10:15:10;;;;;;;9.55;8.65;;;;;;;;;;7390237;19;20511;-71
2022/07/20 10:17:36;;;;;;;8.95;8.15;;;;;;;;;;7389887;19;20116;-71
2022/07/20 10:20:02;;;;;;;8.98;8.35;;;;;;;;;;7391409;19;20113;-70
2022/07/20 10:22:27;;;;;;;8.82;7.90;;;;;;;;;;7389454;19;20169;-71
2022/07/20 10:25:31;;;;;;;9.10;8.27;;;;;;;;;;7391350;19;20590;-70
2022/07/20 10:28:22;;;;;;;8.93;8.23;;;;;;;;;;7386446;19;20173;-71
2022/07/20 10:30:58;;;;;;;9.15;8.40;;;;;;;;;;7389534;19;20133;-71
2022/07/20 10:33:25;;;;;;;8.93;8.23;;;;;;;;;;7389076;19;20124;-71
2022/07/20 10:35:51;;;;;;;9.13;8.23;;;;;;;;;;7388815;19;20128;-71
2022/07/20 10:38:20;;;;;;;8.15;7.50;;;;;;;;;;7385136;19;20133;-70
2022/07/20 10:44:22;;;;;;;7.68;7.03;;;;;;;;;;7387783;19;20179;-70
2022/07/20 10:46:48;;;;;;;8.57;7.88;;;;;;;;;;7388528;19;20197;-70
2022/07/20 10:49:14;;;;;;;8.02;7.40;;;;;;;;;;7387718;19;20133;-70
2022/07/20 10:51:40;;;;;;;8.73;8.05;;;;;;;;;;7384855;19;20497;-70
2022/07/20 10:54:33;;;;;;;9.00;8.30;;;;;;;;;;7391229;19;20140;-70
2022/07/20 10:56:59;;;;;;;9.00;8.07;;;;;;;;;;7395598;19;20141;-70
2022/07/20 10:59:24;;;;;;;8.43;7.82;;;;;;;;;;7393487;19;20918;-70
2022/07/20 11:01:50;;;;;;;8.85;8.05;;;;;;;;;;7391902;19;20176;-70
2022/07/20 11:04:15;;;;;;;8.40;7.60;;;;;;;;;;7395575;19;20105;-70
2022/07/20 11:06:41;;;;;;;8.75;8.15;;;;;;;;;;7395457;19;20454;-70
2022/07/20 11:09:06;;;;;;;8.52;7.70;;;;;;;;;;7395557;19;20218;-70
2022/07/20 11:11:34;;;;;;;8.60;7.90;;;;;;;;;;7394887;19;20879;-70
2022/07/20 11:14:01;;;;;;;8.18;7.57;;;;;;;;;;7387215;19;20128;-70
2022/07/20 11:16:27;;;;;;;8.10;7.43;;;;;;;;;;7395058;19;20204;-70
2022/07/20 11:18:54;;;;;;;7.93;7.32;;;;;;;;;;7394909;19;20133;-70
2022/07/20 11:21:43;;;;;;;8.30;6.80;;;;;;;;;;7393959;19;20149;-70
2022/07/20 11:24:26;;;;;;;7.13;6.57;;;;;;;;;;7396022;19;20137;-70
2022/07/20 11:26:53;;;;;;;8.50;7.90;;;;;;;;;;7394655;19;20124;-70
2022/07/20 11:29:18;;;;;;;8.48;7.65;;;;;;;;;;7394694;19;20121;-70
2022/07/20 11:31:44;;;;;;;8.40;7.70;;;;;;;;;;7393897;19;20179;-70
2022/07/20 11:34:13;;;;;;;7.78;7.18;;;;;;;;;;7396866;19;20181;-70
2022/07/20 11:36:38;;;;;;;8.82;8.02;;;;;;;;;;7394112;19;20129;-70
2022/07/20 11:39:05;;;;;;;9.35;8.07;;;;;;;;;;7395570;19;20954;-70
2022/07/20 11:41:31;;;;;;;8.43;7.72;;;;;;;;;;7393148;19;20151;-71
2022/07/20 11:43:58;;;;;;;9.40;8.48;;;;;;;;;;7396606;19;20132;-70
2022/07/20 11:46:26;;;;;;;9.10;8.30;;;;;;;;;;7394275;19;20594;-70
2022/07/20 11:48:56;;;;;;;8.80;8.20;;;;;;;;;;7396888;19;20479;-70
2022/07/20 11:51:22;;;;;;;9.25;8.52;;;;;;;;;;7391832;19;20145;-70
2022/07/20 11:53:47;;;;;;;9.88;8.85;;;;;;;;;;7394823;19;20628;-71
2022/07/20 11:56:15;;;;;;;8.55;7.95;;;;;;;;;;7393487;19;20188;-70
2022/07/20 11:58:42;;;;;;;8.90;8.23;;;;;;;;;;7396131;19;20156;-71
2022/07/20 12:01:10;;;;;;;9.48;8.68;;;;;;;;;;7393140;19;20221;-70
2022/07/20 12:03:37;;;;;;;9.48;8.63;;;;;;;;;;7395952;19;20117;-71
2022/07/20 12:06:08;;;;;;;9.95;8.95;;;;;;;;;;7393028;19;20125;-70
2022/07/20 12:08:34;;;;;;;10.23;9.25;;;;;;;;;;7394464;19;20147;-71
2022/07/20 12:11:00;;;;;;;9.75;9.00;;;;;;;;;;7392352;19;20180;-70
2022/07/20 12:13:26;;;;;;;9.52;8.70;;;;;;;;;;7393447;19;20136;-70
2022/07/20 12:16:03;;;;;;;8.90;8.00;;;;;;;;;;7394776;19;20142;-70
2022/07/20 12:18:32;;;;;;;9.57;8.68;;;;;;;;;;7394241;19;20227;-70
2022/07/20 12:20:59;;;;;;;9.90;9.05;;;;;;;;;;7393119;19;20506;-70
2022/07/20 12:23:26;;;;;;;9.63;8.88;;;;;;;;;;7391349;19;20295;-70
2022/07/20 12:25:52;;;;;;;9.55;8.65;;;;;;;;;;7392478;19;20488;-70
2022/07/20 12:28:30;;;;;;;9.35;8.65;;;;;;;;;;7394888;19;20733;-70
2022/07/20 12:31:14;;;;;;;12.63;8.82;;;;;;;;;;7392675;19;20145;-71
2022/07/20 12:34:05;;;;;;;10.73;9.75;;;;;;;;;;7392854;19;20125;-70
2022/07/20 12:36:52;;;;;;;11.95;10.68;;;;;;;;;;7392231;19;20129;-70
2022/07/20 12:39:40;;;;;;;10.77;9.60;;;;;;;;;;7394787;19;20585;-70
2022/07/20 12:42:08;;;;;;;11.40;10.38;;;;;;;;;;7390224;19;20145;-70
2022/07/20 12:44:34;;;;;;;12.27;11.15;;;;;;;;;;7394351;19;21103;-70
2022/07/20 12:47:00;;;;;;;12.65;10.93;;;;;;;;;;7391294;19;20129;-70
2022/07/20 12:49:27;;;;;;;11.10;10.18;;;;;;;;;;7391957;19;20146;-70
2022/07/20 12:51:54;;;;;;;11.82;10.73;;;;;;;;;;7390442;19;20145;-70
2022/07/20 12:54:19;;;;;;;13.07;11.82;;;;;;;;;;7393620;19;20137;-70
2022/07/20 12:56:45;;;;;;;13.07;11.90;;;;;;;;;;7391221;19;20186;-70
2022/07/20 12:59:12;;;;;;;14.25;13.02;;;;;;;;;;7392307;19;20611;-70
2022/07/20 13:01:38;;;;;;;17.20;12.90;;;;;;;;;;7390255;19;20149;-70
2022/07/20 13:04:04;;;;;;;16.02;13.25;;;;;;;;;;7393715;19;20189;-70
2022/07/20 13:06:32;;;;;;;14.35;12.95;;;;;;;;;;7393252;19;20129;-70
2022/07/20 13:08:57;;;;;;;14.02;12.73;;;;;;;;;;7391168;19;20192;-70
2022/07/20 13:11:22;;;;;;;18.33;13.43;;;;;;;;;;7389432;19;20149;-70
2022/07/20 13:13:47;;;;;;;13.77;12.48;;;;;;;;;;7392479;19;20483;-71
2022/07/20 13:16:13;;;;;;;13.48;12.43;;;;;;;;;;7389348;19;20113;-71
2022/07/20 13:18:38;;;;;;;13.70;12.40;;;;;;;;;;7386343;19;20121;-70
2022/07/20 13:21:03;;;;;;;11.90;10.80;;;;;;;;;;7389189;19;20231;-70
2022/07/20 13:23:29;;;;;;;11.27;10.18;;;;;;;;;;7389697;19;20657;-70
2022/07/20 13:25:54;;;;;;;11.07;9.88;;;;;;;;;;7389999;19;20422;-70
2022/07/20 13:28:20;;;;;;;13.90;10.20;;;;;;;;;;7387855;19;20140;-70
2022/07/20 13:30:46;;;;;;;11.52;10.23;;;;;;;;;;7387508;19;20463;-70
2022/07/20 13:33:12;;;;;;;10.75;9.73;;;;;;;;;;7389327;19;20121;-70
2022/07/20 13:35:38;;;;;;;10.10;9.30;;;;;;;;;;7389073;19;20638;-70
2022/07/20 13:38:04;;;;;;;10.27;9.48;;;;;;;;;;7388449;19;20124;-70
2022/07/20 13:40:29;;;;;;;10.23;9.20;;;;;;;;;;7389785;19;20138;-70
2022/07/20 13:42:55;;;;;;;9.98;9.07;;;;;;;;;;7388726;19;20172;-70
2022/07/20 13:45:21;;;;;;;10.30;9.45;;;;;;;;;;7390446;19;20113;-70
2022/07/20 13:47:46;;;;;;;9.55;8.65;;;;;;;;;;7387955;19;20188;-70
2022/07/20 13:50:12;;;;;;;9.50;8.70;;;;;;;;;;7389117;19;20582;-70
2022/07/20 13:52:37;;;;;;;12.02;9.10;;;;;;;;;;7388832;19;20544;-70
2022/07/20 13:55:03;;;;;;;9.43;8.55;;;;;;;;;;7382675;19;20125;-70
2022/07/20 13:57:29;;;;;;;10.23;9.13;;;;;;;;;;7388671;19;20640;-70
2022/07/20 13:59:54;;;;;;;9.40;8.52;;;;;;;;;;7387933;19;20121;-71
2022/07/20 14:02:19;;;;;;;9.38;8.55;;;;;;;;;;7383066;19;20175;-70
2022/07/20 14:04:44;;;;;;;10.00;8.48;;;;;;;;;;7384339;19;20121;-70
2022/07/20 14:07:10;;;;;;;11.60;8.65;;;;;;;;;;7384074;19;20121;-71
2022/07/20 14:09:36;;;;;;;8.05;7.35;;;;;;;;;;7384715;19;20155;-70
2022/07/20 14:12:01;;;;;;;8.02;7.22;;;;;;;;;;7381142;19;21099;-70
2022/07/20 14:14:26;;;;;;;8.32;7.53;;;;;;;;;;7383542;19;20121;-70
2022/07/20 14:16:52;;;;;;;8.68;7.93;;;;;;;;;;7386351;19;20529;-70
2022/07/20 14:19:17;;;;;;;9.30;7.43;;;;;;;;;;7389257;19;20120;-70
2022/07/20 14:21:43;;;;;;;8.30;7.60;;;;;;;;;;7387933;19;20556;-70
2022/07/20 14:24:09;;;;;;;8.13;7.43;;;;;;;;;;7388868;19;20116;-70
2022/07/20 14:26:36;;;;;;;7.63;6.95;;;;;;;;;;7389104;19;20129;-70
2022/07/20 14:29:03;;;;;;;8.85;8.10;;;;;;;;;;7389285;19;20151;-70
2022/07/20 14:31:30;;;;;;;8.40;7.70;;;;;;;;;;7388491;19;20182;-70
2022/07/20 14:33:55;;;;;;;9.70;8.85;;;;;;;;;;7391549;19;20159;-70
2022/07/20 14:36:20;;;;;;;8.90;8.20;;;;;;;;;;7390607;19;20125;-70
2022/07/20 14:38:46;;;;;;;12.82;9.88;;;;;;;;;;7389479;19;20172;-70
2022/07/20 14:41:11;;;;;;;10.10;9.20;;;;;;;;;;7388861;19;20152;-70